sensor_id;sensor_type;location;lat;lon;timestamp;P1;durP1;ratioP1;P2;durP2;ratioP2
79401;SDS011;68857;47.916;106.940;2024-03-23T00:52:01;11.85;;;5.32;;
79401;SDS011;68857;47.916;106.940;2024-03-23T00:56:54;12.65;;;5.43;;
79401;SDS011;68857;47.916;106.940;2024-03-23T00:59:20;10.52;;;4.55;;
79401;SDS011;68857;47.916;106.940;2024-03-23T01:01:52;11.40;;;5.50;;
79401;SDS011;68857;47.916;106.940;2024-03-23T01:04:19;11.20;;;6.03;;
79401;SDS011;68857;47.916;106.940;2024-03-23T01:06:45;11.00;;;5.03;;
79401;SDS011;68857;47.916;106.940;2024-03-23T01:09:12;11.15;;;4.90;;
79401;SDS011;68857;47.916;106.940;2024-03-23T01:11:38;12.07;;;5.10;;
79401;SDS011;68857;47.916;106.940;2024-03-23T01:14:05;10.13;;;5.43;;
79401;SDS011;68857;47.916;106.940;2024-03-23T01:16:32;15.75;;;6.35;;
79401;SDS011;68857;47.916;106.940;2024-03-23T01:21:25;8.95;;;5.07;;
79401;SDS011;68857;47.916;106.940;2024-03-23T01:23:51;14.57;;;5.40;;
79401;SDS011;68857;47.916;106.940;2024-03-23T01:26:18;10.68;;;4.57;;
79401;SDS011;68857;47.916;106.940;2024-03-23T01:28:45;11.35;;;5.00;;
79401;SDS011;68857;47.916;106.940;2024-03-23T01:31:12;11.77;;;5.40;;
79401;SDS011;68857;47.916;106.940;2024-03-23T01:36:05;12.82;;;5.40;;
79401;SDS011;68857;47.916;106.940;2024-03-23T01:38:31;12.80;;;5.28;;
79401;SDS011;68857;47.916;106.940;2024-03-23T01:40:58;11.50;;;5.03;;
79401;SDS011;68857;47.916;106.940;2024-03-23T01:43:24;10.73;;;4.93;;
79401;SDS011;68857;47.916;106.940;2024-03-23T01:45:51;11.43;;;4.57;;
79401;SDS011;68857;47.916;106.940;2024-03-23T01:48:19;12.85;;;3.80;;
79401;SDS011;68857;47.916;106.940;2024-03-23T01:50:46;7.85;;;3.40;;
79401;SDS011;68857;47.916;106.940;2024-03-23T01:53:14;7.55;;;2.92;;
79401;SDS011;68857;47.916;106.940;2024-03-23T01:55:43;7.57;;;3.03;;
79401;SDS011;68857;47.916;106.940;2024-03-23T01:58:09;5.35;;;2.63;;
79401;SDS011;68857;47.916;106.940;2024-03-23T02:00:36;5.30;;;1.80;;
79401;SDS011;68857;47.916;106.940;2024-03-23T02:03:06;4.78;;;1.60;;
79401;SDS011;68857;47.916;106.940;2024-03-23T02:05:48;6.10;;;1.90;;
79401;SDS011;68857;47.916;106.940;2024-03-23T02:08:15;7.03;;;1.95;;
79401;SDS011;68857;47.916;106.940;2024-03-23T02:10:44;6.65;;;2.65;;
79401;SDS011;68857;47.916;106.940;2024-03-23T02:13:10;5.50;;;2.38;;
79401;SDS011;68857;47.916;106.940;2024-03-23T02:15:38;6.13;;;2.40;;
79401;SDS011;68857;47.916;106.940;2024-03-23T02:18:05;5.18;;;2.08;;
79401;SDS011;68857;47.916;106.940;2024-03-23T02:20:31;5.18;;;2.30;;
79401;SDS011;68857;47.916;106.940;2024-03-23T02:22:57;6.38;;;1.88;;
79401;SDS011;68857;47.916;106.940;2024-03-23T02:25:24;8.05;;;1.80;;
79401;SDS011;68857;47.916;106.940;2024-03-23T02:27:51;3.30;;;1.33;;
79401;SDS011;68857;47.916;106.940;2024-03-23T02:30:19;3.13;;;1.23;;
79401;SDS011;68857;47.916;106.940;2024-03-23T02:32:46;4.60;;;1.55;;
79401;SDS011;68857;47.916;106.940;2024-03-23T02:35:12;3.45;;;1.23;;
79401;SDS011;68857;47.916;106.940;2024-03-23T02:40:05;5.43;;;1.70;;
79401;SDS011;68857;47.916;106.940;2024-03-23T02:42:32;4.00;;;1.50;;
79401;SDS011;68857;47.916;106.940;2024-03-23T02:44:58;4.75;;;1.40;;
79401;SDS011;68857;47.916;106.940;2024-03-23T02:47:25;4.28;;;1.50;;
79401;SDS011;68857;47.916;106.940;2024-03-23T02:49:51;4.47;;;1.30;;
79401;SDS011;68857;47.916;106.940;2024-03-23T02:52:19;5.88;;;1.40;;
79401;SDS011;68857;47.916;106.940;2024-03-23T02:54:46;4.35;;;1.17;;
79401;SDS011;68857;47.916;106.940;2024-03-23T02:57:13;2.17;;;0.70;;
79401;SDS011;68857;47.916;106.940;2024-03-23T02:59:39;1.92;;;0.80;;
79401;SDS011;68857;47.916;106.940;2024-03-23T03:02:05;4.75;;;1.20;;
79401;SDS011;68857;47.916;106.940;2024-03-23T03:04:32;2.08;;;0.90;;
79401;SDS011;68857;47.916;106.940;2024-03-23T03:06:59;2.65;;;0.98;;
79401;SDS011;68857;47.916;106.940;2024-03-23T03:09:26;3.95;;;1.00;;
79401;SDS011;68857;47.916;106.940;2024-03-23T03:11:53;2.65;;;0.95;;
79401;SDS011;68857;47.916;106.940;2024-03-23T03:14:19;3.92;;;1.73;;
79401;SDS011;68857;47.916;106.940;2024-03-23T03:16:46;3.67;;;1.10;;
79401;SDS011;68857;47.916;106.940;2024-03-23T03:19:13;2.13;;;1.10;;
79401;SDS011;68857;47.916;106.940;2024-03-23T03:21:42;2.53;;;1.02;;
79401;SDS011;68857;47.916;106.940;2024-03-23T03:24:08;3.25;;;0.80;;
79401;SDS011;68857;47.916;106.940;2024-03-23T03:26:35;2.88;;;1.48;;
79401;SDS011;68857;47.916;106.940;2024-03-23T03:29:02;3.67;;;0.47;;
79401;SDS011;68857;47.916;106.940;2024-03-23T03:31:29;2.10;;;0.68;;
79401;SDS011;68857;47.916;106.940;2024-03-23T03:33:55;3.03;;;0.98;;
79401;SDS011;68857;47.916;106.940;2024-03-23T03:36:22;4.05;;;0.80;;
79401;SDS011;68857;47.916;106.940;2024-03-23T03:38:49;1.83;;;0.82;;
79401;SDS011;68857;47.916;106.940;2024-03-23T03:41:15;2.40;;;0.70;;
79401;SDS011;68857;47.916;106.940;2024-03-23T03:43:42;1.60;;;0.70;;
79401;SDS011;68857;47.916;106.940;2024-03-23T03:46:08;4.30;;;2.15;;
79401;SDS011;68857;47.916;106.940;2024-03-23T03:48:36;1.88;;;0.75;;
79401;SDS011;68857;47.916;106.940;2024-03-23T03:51:03;2.15;;;0.68;;
79401;SDS011;68857;47.916;106.940;2024-03-23T03:53:30;2.78;;;0.60;;
79401;SDS011;68857;47.916;106.940;2024-03-23T03:56:00;1.83;;;0.95;;
79401;SDS011;68857;47.916;106.940;2024-03-23T03:58:27;5.53;;;2.08;;
79401;SDS011;68857;47.916;106.940;2024-03-23T04:00:54;4.25;;;2.53;;
79401;SDS011;68857;47.916;106.940;2024-03-23T04:03:20;3.53;;;1.23;;
79401;SDS011;68857;47.916;106.940;2024-03-23T04:05:53;2.60;;;0.95;;
79401;SDS011;68857;47.916;106.940;2024-03-23T04:08:20;2.47;;;0.90;;
79401;SDS011;68857;47.916;106.940;2024-03-23T04:10:47;3.60;;;1.00;;
79401;SDS011;68857;47.916;106.940;2024-03-23T04:13:14;3.50;;;1.23;;
79401;SDS011;68857;47.916;106.940;2024-03-23T04:15:41;2.58;;;0.90;;
79401;SDS011;68857;47.916;106.940;2024-03-23T04:18:08;3.60;;;1.33;;
79401;SDS011;68857;47.916;106.940;2024-03-23T04:20:34;3.65;;;1.20;;
79401;SDS011;68857;47.916;106.940;2024-03-23T04:23:01;4.10;;;1.10;;
79401;SDS011;68857;47.916;106.940;2024-03-23T04:25:28;3.70;;;1.15;;
79401;SDS011;68857;47.916;106.940;2024-03-23T04:27:55;3.53;;;1.13;;
79401;SDS011;68857;47.916;106.940;2024-03-23T04:30:21;3.88;;;1.20;;
79401;SDS011;68857;47.916;106.940;2024-03-23T04:32:50;3.08;;;1.30;;
79401;SDS011;68857;47.916;106.940;2024-03-23T04:35:16;4.40;;;1.42;;
79401;SDS011;68857;47.916;106.940;2024-03-23T04:37:45;3.20;;;1.20;;
79401;SDS011;68857;47.916;106.940;2024-03-23T04:40:12;6.25;;;1.60;;
79401;SDS011;68857;47.916;106.940;2024-03-23T04:42:38;3.70;;;1.40;;
79401;SDS011;68857;47.916;106.940;2024-03-23T04:45:05;4.60;;;1.63;;
79401;SDS011;68857;47.916;106.940;2024-03-23T04:47:32;4.72;;;2.22;;
79401;SDS011;68857;47.916;106.940;2024-03-23T04:50:01;4.45;;;1.63;;
79401;SDS011;68857;47.916;106.940;2024-03-23T04:52:28;4.85;;;1.75;;
79401;SDS011;68857;47.916;106.940;2024-03-23T04:54:55;4.07;;;1.67;;
79401;SDS011;68857;47.916;106.940;2024-03-23T04:57:21;4.88;;;2.00;;
79401;SDS011;68857;47.916;106.940;2024-03-23T04:59:48;5.57;;;2.00;;
79401;SDS011;68857;47.916;106.940;2024-03-23T05:02:15;6.93;;;3.33;;
79401;SDS011;68857;47.916;106.940;2024-03-23T05:04:42;6.82;;;2.80;;
79401;SDS011;68857;47.916;106.940;2024-03-23T05:07:08;7.43;;;3.95;;
79401;SDS011;68857;47.916;106.940;2024-03-23T05:09:36;6.03;;;2.50;;
79401;SDS011;68857;47.916;106.940;2024-03-23T05:12:03;7.47;;;3.10;;
79401;SDS011;68857;47.916;106.940;2024-03-23T05:14:29;5.30;;;2.10;;
79401;SDS011;68857;47.916;106.940;2024-03-23T05:16:56;4.90;;;1.80;;
79401;SDS011;68857;47.916;106.940;2024-03-23T05:19:23;3.17;;;1.60;;
79401;SDS011;68857;47.916;106.940;2024-03-23T05:21:49;4.28;;;2.08;;
79401;SDS011;68857;47.916;106.940;2024-03-23T05:24:16;4.28;;;1.73;;
79401;SDS011;68857;47.916;106.940;2024-03-23T05:26:42;4.68;;;1.80;;
79401;SDS011;68857;47.916;106.940;2024-03-23T05:29:09;2.55;;;1.35;;
79401;SDS011;68857;47.916;106.940;2024-03-23T05:31:38;4.47;;;1.77;;
79401;SDS011;68857;47.916;106.940;2024-03-23T05:34:07;4.40;;;1.70;;
79401;SDS011;68857;47.916;106.940;2024-03-23T05:36:34;6.97;;;2.13;;
79401;SDS011;68857;47.916;106.940;2024-03-23T05:39:01;12.10;;;2.40;;
79401;SDS011;68857;47.916;106.940;2024-03-23T05:41:28;8.20;;;2.38;;
79401;SDS011;68857;47.916;106.940;2024-03-23T05:43:55;9.35;;;2.13;;
79401;SDS011;68857;47.916;106.940;2024-03-23T05:46:21;13.30;;;2.22;;
79401;SDS011;68857;47.916;106.940;2024-03-23T05:48:48;10.60;;;2.60;;
79401;SDS011;68857;47.916;106.940;2024-03-23T05:51:15;16.35;;;3.67;;
79401;SDS011;68857;47.916;106.940;2024-03-23T05:53:42;9.55;;;2.03;;
79401;SDS011;68857;47.916;106.940;2024-03-23T05:56:09;9.70;;;2.22;;
79401;SDS011;68857;47.916;106.940;2024-03-23T05:58:36;9.18;;;1.85;;
79401;SDS011;68857;47.916;106.940;2024-03-23T06:01:02;11.35;;;2.55;;
79401;SDS011;68857;47.916;106.940;2024-03-23T06:03:30;8.25;;;1.70;;
79401;SDS011;68857;47.916;106.940;2024-03-23T06:05:56;12.25;;;2.90;;
79401;SDS011;68857;47.916;106.940;2024-03-23T06:08:23;8.82;;;1.92;;
79401;SDS011;68857;47.916;106.940;2024-03-23T06:10:50;8.38;;;2.13;;
79401;SDS011;68857;47.916;106.940;2024-03-23T06:13:17;12.65;;;2.08;;
79401;SDS011;68857;47.916;106.940;2024-03-23T06:15:43;8.95;;;2.38;;
79401;SDS011;68857;47.916;106.940;2024-03-23T06:18:11;6.57;;;1.63;;
79401;SDS011;68857;47.916;106.940;2024-03-23T06:20:38;7.22;;;2.08;;
79401;SDS011;68857;47.916;106.940;2024-03-23T06:23:05;7.03;;;1.70;;
79401;SDS011;68857;47.916;106.940;2024-03-23T06:25:32;5.40;;;1.65;;
79401;SDS011;68857;47.916;106.940;2024-03-23T06:27:59;5.75;;;2.33;;
79401;SDS011;68857;47.916;106.940;2024-03-23T06:30:27;7.80;;;1.85;;
79401;SDS011;68857;47.916;106.940;2024-03-23T06:32:54;4.55;;;2.22;;
79401;SDS011;68857;47.916;106.940;2024-03-23T06:35:21;8.52;;;2.08;;
79401;SDS011;68857;47.916;106.940;2024-03-23T06:37:48;8.68;;;1.80;;
79401;SDS011;68857;47.916;106.940;2024-03-23T06:40:15;11.15;;;2.45;;
79401;SDS011;68857;47.916;106.940;2024-03-23T06:42:41;8.73;;;1.80;;
79401;SDS011;68857;47.916;106.940;2024-03-23T06:45:08;9.48;;;2.10;;
79401;SDS011;68857;47.916;106.940;2024-03-23T06:47:35;13.68;;;2.78;;
79401;SDS011;68857;47.916;106.940;2024-03-23T06:50:02;11.32;;;2.90;;
79401;SDS011;68857;47.916;106.940;2024-03-23T06:52:29;9.13;;;1.80;;
79401;SDS011;68857;47.916;106.940;2024-03-23T06:54:56;10.25;;;2.28;;
79401;SDS011;68857;47.916;106.940;2024-03-23T06:57:23;9.40;;;2.15;;
79401;SDS011;68857;47.916;106.940;2024-03-23T06:59:50;9.25;;;1.75;;
79401;SDS011;68857;47.916;106.940;2024-03-23T07:02:16;6.57;;;2.25;;
79401;SDS011;68857;47.916;106.940;2024-03-23T07:04:43;8.20;;;2.50;;
79401;SDS011;68857;47.916;106.940;2024-03-23T07:07:10;6.75;;;1.77;;
79401;SDS011;68857;47.916;106.940;2024-03-23T07:09:37;5.55;;;1.30;;
79401;SDS011;68857;47.916;106.940;2024-03-23T07:12:03;7.95;;;1.60;;
79401;SDS011;68857;47.916;106.940;2024-03-23T07:14:30;7.13;;;2.25;;
79401;SDS011;68857;47.916;106.940;2024-03-23T07:16:57;7.35;;;1.33;;
79401;SDS011;68857;47.916;106.940;2024-03-23T07:19:23;4.57;;;1.40;;
79401;SDS011;68857;47.916;106.940;2024-03-23T07:21:50;7.68;;;1.60;;
79401;SDS011;68857;47.916;106.940;2024-03-23T07:24:17;5.55;;;1.10;;
79401;SDS011;68857;47.916;106.940;2024-03-23T07:26:43;4.30;;;1.30;;
79401;SDS011;68857;47.916;106.940;2024-03-23T07:29:10;7.38;;;1.55;;
79401;SDS011;68857;47.916;106.940;2024-03-23T07:31:36;5.72;;;1.33;;
79401;SDS011;68857;47.916;106.940;2024-03-23T07:34:04;9.02;;;1.90;;
79401;SDS011;68857;47.916;106.940;2024-03-23T07:36:31;8.00;;;2.83;;
79401;SDS011;68857;47.916;106.940;2024-03-23T07:38:57;9.75;;;2.10;;
79401;SDS011;68857;47.916;106.940;2024-03-23T07:41:24;16.92;;;2.55;;
79401;SDS011;68857;47.916;106.940;2024-03-23T07:43:53;12.82;;;2.30;;
79401;SDS011;68857;47.916;106.940;2024-03-23T07:46:20;10.68;;;2.25;;
79401;SDS011;68857;47.916;106.940;2024-03-23T07:48:46;13.73;;;2.53;;
79401;SDS011;68857;47.916;106.940;2024-03-23T07:51:18;11.80;;;3.20;;
79401;SDS011;68857;47.916;106.940;2024-03-23T07:53:45;10.35;;;2.28;;
79401;SDS011;68857;47.916;106.940;2024-03-23T07:56:13;12.10;;;2.75;;
79401;SDS011;68857;47.916;106.940;2024-03-23T07:58:44;10.65;;;2.85;;
79401;SDS011;68857;47.916;106.940;2024-03-23T08:01:12;10.07;;;3.13;;
79401;SDS011;68857;47.916;106.940;2024-03-23T08:03:42;9.57;;;2.85;;
79401;SDS011;68857;47.916;106.940;2024-03-23T08:06:13;14.65;;;3.20;;
79401;SDS011;68857;47.916;106.940;2024-03-23T08:08:40;15.18;;;3.58;;
79401;SDS011;68857;47.916;106.940;2024-03-23T08:11:07;11.40;;;3.25;;
79401;SDS011;68857;47.916;106.940;2024-03-23T08:13:34;14.52;;;3.75;;
79401;SDS011;68857;47.916;106.940;2024-03-23T08:16:02;14.88;;;3.10;;
79401;SDS011;68857;47.916;106.940;2024-03-23T08:18:30;15.80;;;3.10;;
79401;SDS011;68857;47.916;106.940;2024-03-23T08:21:00;12.98;;;2.92;;
79401;SDS011;68857;47.916;106.940;2024-03-23T08:23:27;11.38;;;2.85;;
79401;SDS011;68857;47.916;106.940;2024-03-23T08:25:58;14.82;;;3.22;;
79401;SDS011;68857;47.916;106.940;2024-03-23T08:28:25;15.13;;;3.42;;
79401;SDS011;68857;47.916;106.940;2024-03-23T08:30:55;16.02;;;3.63;;
79401;SDS011;68857;47.916;106.940;2024-03-23T08:33:22;18.83;;;3.67;;
79401;SDS011;68857;47.916;106.940;2024-03-23T08:35:58;19.55;;;3.55;;
79401;SDS011;68857;47.916;106.940;2024-03-23T08:38:26;15.55;;;3.80;;
79401;SDS011;68857;47.916;106.940;2024-03-23T08:40:56;16.33;;;3.58;;
79401;SDS011;68857;47.916;106.940;2024-03-23T08:43:23;16.92;;;3.80;;
79401;SDS011;68857;47.916;106.940;2024-03-23T08:45:50;17.35;;;2.97;;
79401;SDS011;68857;47.916;106.940;2024-03-23T08:48:17;16.00;;;3.20;;
79401;SDS011;68857;47.916;106.940;2024-03-23T08:50:46;14.80;;;3.65;;
79401;SDS011;68857;47.916;106.940;2024-03-23T08:53:12;15.27;;;3.25;;
79401;SDS011;68857;47.916;106.940;2024-03-23T08:55:39;20.15;;;4.38;;
79401;SDS011;68857;47.916;106.940;2024-03-23T08:58:06;20.60;;;6.32;;
79401;SDS011;68857;47.916;106.940;2024-03-23T09:00:34;19.55;;;5.50;;
79401;SDS011;68857;47.916;106.940;2024-03-23T09:03:01;19.08;;;4.38;;
79401;SDS011;68857;47.916;106.940;2024-03-23T09:05:28;25.15;;;5.35;;
79401;SDS011;68857;47.916;106.940;2024-03-23T09:08:01;22.20;;;5.65;;
79401;SDS011;68857;47.916;106.940;2024-03-23T09:10:28;27.52;;;5.85;;
79401;SDS011;68857;47.916;106.940;2024-03-23T09:12:54;20.77;;;4.75;;
79401;SDS011;68857;47.916;106.940;2024-03-23T09:15:21;19.60;;;4.38;;
79401;SDS011;68857;47.916;106.940;2024-03-23T09:17:47;26.45;;;4.43;;
79401;SDS011;68857;47.916;106.940;2024-03-23T09:20:14;17.40;;;4.65;;
79401;SDS011;68857;47.916;106.940;2024-03-23T09:22:41;12.55;;;3.00;;
79401;SDS011;68857;47.916;106.940;2024-03-23T09:25:07;9.13;;;2.95;;
79401;SDS011;68857;47.916;106.940;2024-03-23T09:27:34;9.25;;;1.98;;
79401;SDS011;68857;47.916;106.940;2024-03-23T09:30:01;8.00;;;2.00;;
79401;SDS011;68857;47.916;106.940;2024-03-23T09:32:27;6.72;;;1.50;;
79401;SDS011;68857;47.916;106.940;2024-03-23T09:34:54;8.68;;;2.38;;
79401;SDS011;68857;47.916;106.940;2024-03-23T09:37:20;7.72;;;2.40;;
79401;SDS011;68857;47.916;106.940;2024-03-23T09:39:47;7.57;;;2.08;;
79401;SDS011;68857;47.916;106.940;2024-03-23T09:42:14;6.22;;;1.25;;
79401;SDS011;68857;47.916;106.940;2024-03-23T09:44:40;6.57;;;3.47;;
79401;SDS011;68857;47.916;106.940;2024-03-23T09:47:08;6.47;;;2.15;;
79401;SDS011;68857;47.916;106.940;2024-03-23T09:49:34;14.02;;;1.92;;
79401;SDS011;68857;47.916;106.940;2024-03-23T09:52:05;9.20;;;2.17;;
79401;SDS011;68857;47.916;106.940;2024-03-23T09:54:32;10.80;;;3.08;;
79401;SDS011;68857;47.916;106.940;2024-03-23T09:56:58;13.63;;;3.95;;
79401;SDS011;68857;47.916;106.940;2024-03-23T09:59:25;16.80;;;3.20;;
79401;SDS011;68857;47.916;106.940;2024-03-23T10:01:54;18.80;;;4.22;;
79401;SDS011;68857;47.916;106.940;2024-03-23T10:07:13;16.00;;;3.75;;
79401;SDS011;68857;47.916;106.940;2024-03-23T10:09:39;20.98;;;4.20;;
79401;SDS011;68857;47.916;106.940;2024-03-23T10:12:12;20.92;;;5.75;;
79401;SDS011;68857;47.916;106.940;2024-03-23T10:14:40;25.10;;;6.32;;
79401;SDS011;68857;47.916;106.940;2024-03-23T10:17:16;27.58;;;5.65;;
79401;SDS011;68857;47.916;106.940;2024-03-23T10:19:48;35.55;;;6.63;;
79401;SDS011;68857;47.916;106.940;2024-03-23T10:22:18;27.25;;;6.28;;
79401;SDS011;68857;47.916;106.940;2024-03-23T10:24:45;33.83;;;6.88;;
79401;SDS011;68857;47.916;106.940;2024-03-23T10:27:16;26.70;;;6.10;;
79401;SDS011;68857;47.916;106.940;2024-03-23T10:29:48;28.02;;;5.85;;
79401;SDS011;68857;47.916;106.940;2024-03-23T10:32:18;22.40;;;6.70;;
79401;SDS011;68857;47.916;106.940;2024-03-23T10:34:45;32.38;;;7.57;;
79401;SDS011;68857;47.916;106.940;2024-03-23T10:37:12;28.98;;;7.00;;
79401;SDS011;68857;47.916;106.940;2024-03-23T10:39:39;23.92;;;5.32;;
79401;SDS011;68857;47.916;106.940;2024-03-23T10:42:07;22.23;;;6.18;;
79401;SDS011;68857;47.916;106.940;2024-03-23T10:44:35;19.08;;;4.80;;
79401;SDS011;68857;47.916;106.940;2024-03-23T10:47:02;14.10;;;3.22;;
79401;SDS011;68857;47.916;106.940;2024-03-23T10:49:31;13.40;;;3.33;;
79401;SDS011;68857;47.916;106.940;2024-03-23T10:52:02;12.43;;;3.42;;
79401;SDS011;68857;47.916;106.940;2024-03-23T10:54:29;8.38;;;2.20;;
79401;SDS011;68857;47.916;106.940;2024-03-23T10:57:09;10.90;;;3.40;;
79401;SDS011;68857;47.916;106.940;2024-03-23T10:59:37;12.13;;;3.05;;
79401;SDS011;68857;47.916;106.940;2024-03-23T11:02:04;10.35;;;3.28;;
79401;SDS011;68857;47.916;106.940;2024-03-23T11:04:34;13.02;;;3.67;;
79401;SDS011;68857;47.916;106.940;2024-03-23T11:07:01;9.02;;;3.97;;
79401;SDS011;68857;47.916;106.940;2024-03-23T11:14:43;6.50;;;2.28;;
79401;SDS011;68857;47.916;106.940;2024-03-23T11:19:36;7.32;;;2.00;;
79401;SDS011;68857;47.916;106.940;2024-03-23T11:22:03;5.97;;;2.70;;
79401;SDS011;68857;47.916;106.940;2024-03-23T11:24:30;8.07;;;2.10;;
79401;SDS011;68857;47.916;106.940;2024-03-23T11:26:57;6.40;;;2.38;;
79401;SDS011;68857;47.916;106.940;2024-03-23T11:29:29;5.72;;;1.70;;
79401;SDS011;68857;47.916;106.940;2024-03-23T11:31:56;6.10;;;1.38;;
79401;SDS011;68857;47.916;106.940;2024-03-23T11:34:23;8.85;;;1.67;;
79401;SDS011;68857;47.916;106.940;2024-03-23T11:36:50;5.93;;;1.52;;
79401;SDS011;68857;47.916;106.940;2024-03-23T11:44:16;4.13;;;1.42;;
79401;SDS011;68857;47.916;106.940;2024-03-23T11:46:43;4.63;;;1.15;;
79401;SDS011;68857;47.916;106.940;2024-03-23T11:51:52;5.25;;;1.15;;
79401;SDS011;68857;47.916;106.940;2024-03-23T11:54:25;4.50;;;1.55;;
79401;SDS011;68857;47.916;106.940;2024-03-23T11:56:58;5.60;;;1.02;;
79401;SDS011;68857;47.916;106.940;2024-03-23T11:59:37;3.67;;;1.70;;
79401;SDS011;68857;47.916;106.940;2024-03-23T12:02:12;2.72;;;1.73;;
79401;SDS011;68857;47.916;106.940;2024-03-23T12:04:40;4.10;;;1.05;;
79401;SDS011;68857;47.916;106.940;2024-03-23T12:07:20;4.40;;;1.60;;
79401;SDS011;68857;47.916;106.940;2024-03-23T12:10:05;3.45;;;0.80;;
79401;SDS011;68857;47.916;106.940;2024-03-23T12:12:31;4.65;;;1.50;;
79401;SDS011;68857;47.916;106.940;2024-03-23T12:15:05;3.50;;;1.15;;
79401;SDS011;68857;47.916;106.940;2024-03-23T12:17:33;2.80;;;1.08;;
79401;SDS011;68857;47.916;106.940;2024-03-23T12:20:00;4.75;;;1.15;;
79401;SDS011;68857;47.916;106.940;2024-03-23T12:22:27;4.63;;;1.10;;
79401;SDS011;68857;47.916;106.940;2024-03-23T12:24:57;3.90;;;0.73;;
79401;SDS011;68857;47.916;106.940;2024-03-23T12:29:50;4.85;;;1.10;;
79401;SDS011;68857;47.916;106.940;2024-03-23T12:34:43;6.47;;;1.65;;
79401;SDS011;68857;47.916;106.940;2024-03-23T12:39:37;5.45;;;2.42;;
79401;SDS011;68857;47.916;106.940;2024-03-23T12:44:30;11.48;;;2.53;;
79401;SDS011;68857;47.916;106.940;2024-03-23T12:46:57;6.20;;;2.15;;
79401;SDS011;68857;47.916;106.940;2024-03-23T12:49:24;6.85;;;2.33;;
79401;SDS011;68857;47.916;106.940;2024-03-23T12:51:54;6.28;;;2.70;;
79401;SDS011;68857;47.916;106.940;2024-03-23T12:54:21;6.70;;;2.53;;
79401;SDS011;68857;47.916;106.940;2024-03-23T12:56:48;6.55;;;2.83;;
79401;SDS011;68857;47.916;106.940;2024-03-23T13:01:42;7.32;;;2.00;;
79401;SDS011;68857;47.916;106.940;2024-03-23T13:04:09;5.72;;;2.72;;
79401;SDS011;68857;47.916;106.940;2024-03-23T13:06:36;9.15;;;2.90;;
79401;SDS011;68857;47.916;106.940;2024-03-23T13:09:03;8.68;;;3.60;;
79401;SDS011;68857;47.916;106.940;2024-03-23T13:11:30;9.73;;;4.03;;
79401;SDS011;68857;47.916;106.940;2024-03-23T13:13:57;9.70;;;4.00;;
79401;SDS011;68857;47.916;106.940;2024-03-23T13:18:50;13.52;;;5.72;;
79401;SDS011;68857;47.916;106.940;2024-03-23T13:21:16;15.50;;;6.72;;
79401;SDS011;68857;47.916;106.940;2024-03-23T13:23:46;21.35;;;9.00;;
79401;SDS011;68857;47.916;106.940;2024-03-23T13:26:13;25.90;;;11.10;;
79401;SDS011;68857;47.916;106.940;2024-03-23T13:28:40;29.83;;;13.48;;
79401;SDS011;68857;47.916;106.940;2024-03-23T13:31:06;31.65;;;17.08;;
79401;SDS011;68857;47.916;106.940;2024-03-23T13:33:34;40.25;;;18.70;;
79401;SDS011;68857;47.916;106.940;2024-03-23T13:36:00;38.95;;;20.60;;
79401;SDS011;68857;47.916;106.940;2024-03-23T13:38:28;46.38;;;24.35;;
79401;SDS011;68857;47.916;106.940;2024-03-23T13:43:25;57.63;;;28.20;;
79401;SDS011;68857;47.916;106.940;2024-03-23T13:45:57;55.42;;;28.95;;
79401;SDS011;68857;47.916;106.940;2024-03-23T13:48:27;66.90;;;33.10;;
79401;SDS011;68857;47.916;106.940;2024-03-23T13:51:00;61.40;;;30.80;;
79401;SDS011;68857;47.916;106.940;2024-03-23T13:53:27;61.00;;;31.67;;
79401;SDS011;68857;47.916;106.940;2024-03-23T13:55:53;73.82;;;39.60;;
79401;SDS011;68857;47.916;106.940;2024-03-23T13:58:20;72.25;;;42.28;;
79401;SDS011;68857;47.916;106.940;2024-03-23T14:00:47;107.80;;;55.50;;
79401;SDS011;68857;47.916;106.940;2024-03-23T14:03:14;74.28;;;38.40;;
79401;SDS011;68857;47.916;106.940;2024-03-23T14:05:41;82.50;;;44.90;;
79401;SDS011;68857;47.916;106.940;2024-03-23T14:08:08;73.65;;;34.28;;
79401;SDS011;68857;47.916;106.940;2024-03-23T14:10:35;77.90;;;43.22;;
79401;SDS011;68857;47.916;106.940;2024-03-23T14:13:02;66.13;;;32.67;;
79401;SDS011;68857;47.916;106.940;2024-03-23T14:15:29;69.07;;;39.97;;
79401;SDS011;68857;47.916;106.940;2024-03-23T14:17:56;63.95;;;26.08;;
79401;SDS011;68857;47.916;106.940;2024-03-23T14:20:23;46.35;;;24.15;;
79401;SDS011;68857;47.916;106.940;2024-03-23T14:22:49;42.75;;;19.20;;
79401;SDS011;68857;47.916;106.940;2024-03-23T14:25:16;38.83;;;15.50;;
79401;SDS011;68857;47.916;106.940;2024-03-23T14:30:09;33.88;;;13.63;;
79401;SDS011;68857;47.916;106.940;2024-03-23T14:32:36;30.52;;;13.50;;
79401;SDS011;68857;47.916;106.940;2024-03-23T14:35:03;28.67;;;12.82;;
79401;SDS011;68857;47.916;106.940;2024-03-23T14:37:29;27.98;;;12.27;;
79401;SDS011;68857;47.916;106.940;2024-03-23T14:39:56;31.10;;;11.23;;
79401;SDS011;68857;47.916;106.940;2024-03-23T14:42:23;25.77;;;10.40;;
79401;SDS011;68857;47.916;106.940;2024-03-23T14:47:19;22.13;;;11.20;;
79401;SDS011;68857;47.916;106.940;2024-03-23T14:49:47;23.88;;;9.93;;
79401;SDS011;68857;47.916;106.940;2024-03-23T14:52:16;26.23;;;10.40;;
79401;SDS011;68857;47.916;106.940;2024-03-23T14:54:44;25.27;;;10.63;;
79401;SDS011;68857;47.916;106.940;2024-03-23T14:57:10;22.25;;;9.98;;
79401;SDS011;68857;47.916;106.940;2024-03-23T14:59:37;19.83;;;8.95;;
79401;SDS011;68857;47.916;106.940;2024-03-23T15:02:06;20.92;;;9.30;;
79401;SDS011;68857;47.916;106.940;2024-03-23T15:04:33;25.38;;;9.20;;
79401;SDS011;68857;47.916;106.940;2024-03-23T15:06:59;18.63;;;8.65;;
79401;SDS011;68857;47.916;106.940;2024-03-23T15:09:26;22.48;;;8.98;;
79401;SDS011;68857;47.916;106.940;2024-03-23T15:11:53;17.17;;;7.80;;
79401;SDS011;68857;47.916;106.940;2024-03-23T15:14:23;21.42;;;7.97;;
79401;SDS011;68857;47.916;106.940;2024-03-23T15:16:50;17.75;;;7.40;;
79401;SDS011;68857;47.916;106.940;2024-03-23T15:19:18;26.98;;;8.43;;
79401;SDS011;68857;47.916;106.940;2024-03-23T15:21:44;21.15;;;8.13;;
79401;SDS011;68857;47.916;106.940;2024-03-23T15:24:11;22.48;;;8.07;;
79401;SDS011;68857;47.916;106.940;2024-03-23T15:26:38;21.15;;;8.10;;
79401;SDS011;68857;47.916;106.940;2024-03-23T15:29:07;21.85;;;8.15;;
79401;SDS011;68857;47.916;106.940;2024-03-23T15:31:42;20.77;;;7.63;;
79401;SDS011;68857;47.916;106.940;2024-03-23T15:34:09;17.20;;;6.47;;
79401;SDS011;68857;47.916;106.940;2024-03-23T15:36:38;20.80;;;7.75;;
79401;SDS011;68857;47.916;106.940;2024-03-23T15:39:05;20.75;;;8.23;;
79401;SDS011;68857;47.916;106.940;2024-03-23T15:41:32;18.83;;;7.82;;
79401;SDS011;68857;47.916;106.940;2024-03-23T15:44:01;21.98;;;8.15;;
79401;SDS011;68857;47.916;106.940;2024-03-23T15:46:27;19.63;;;6.93;;
79401;SDS011;68857;47.916;106.940;2024-03-23T15:48:54;16.17;;;6.35;;
79401;SDS011;68857;47.916;106.940;2024-03-23T15:51:21;16.25;;;6.65;;
79401;SDS011;68857;47.916;106.940;2024-03-23T15:53:49;14.82;;;6.32;;
79401;SDS011;68857;47.916;106.940;2024-03-23T15:56:22;14.55;;;5.97;;